PAL3858 RPMC-RPLL
Flight info
| Callsign | PAL3858 |
|---|---|
| Flight time | N/A |
| Altitude | 36000 |
| Route | ALDIN B472 IBAGO IBAGO5R |
| Aircraft | B738/M-SDE2E3FGHIRWXY/LB1 |
Departure
| Time | 2026-04-20 09:30 |
|---|---|
| Airport | Cotabato (Awang) Airport (RPMC) |
Arrival
| Time | N/A |
|---|---|
| Airport | Ninoy Aquino International Airport (RPLL) |
| Time | Latitude | Longitude | Altitude | Speed | Heading |
|---|---|---|---|---|---|
| 2026-04-20 09:27 | 7.16305 | 124.21840 | 165 ft | 4 kts | 278° |
| 2026-04-20 09:27 | 7.16302 | 124.21835 | 165 ft | 0 kts | 235° |
| 2026-04-20 09:28 | 7.16296 | 124.21823 | 166 ft | 4 kts | 246° |
| 2026-04-20 09:28 | 7.16294 | 124.21800 | 167 ft | 0 kts | 277° |
| 2026-04-20 09:29 | 7.16298 | 124.21771 | 168 ft | 16 kts | 281° |
| 2026-04-20 09:29 | 7.16387 | 124.21388 | 180 ft | 99 kts | 284° |
| 2026-04-20 09:29 | 7.16615 | 124.20421 | 288 ft | 167 kts | 282° |
| 2026-04-20 09:30 | 7.16922 | 124.19344 | 1332 ft | 158 kts | 288° |
| 2026-04-20 09:30 | 7.17625 | 124.18471 | 2041 ft | 172 kts | 334° |
| 2026-04-20 09:30 | 7.18874 | 124.18274 | 2705 ft | 185 kts | 0° |
| 2026-04-20 09:30 | 7.20194 | 124.18118 | 3491 ft | 195 kts | 345° |
| 2026-04-20 09:31 | 7.21505 | 124.17627 | 4251 ft | 208 kts | 338° |
| 2026-04-20 09:31 | 7.22784 | 124.17045 | 4933 ft | 222 kts | 337° |
| 2026-04-20 09:31 | 7.24218 | 124.16378 | 5653 ft | 237 kts | 337° |
| 2026-04-20 09:31 | 7.25827 | 124.15637 | 5982 ft | 256 kts | 337° |
| 2026-04-20 09:32 | 7.27533 | 124.14857 | 5985 ft | 281 kts | 337° |
| 2026-04-20 09:32 | 7.29434 | 124.13990 | 6315 ft | 305 kts | 336° |
| 2026-04-20 09:32 | 7.31409 | 124.13088 | 7135 ft | 316 kts | 336° |
| 2026-04-20 09:32 | 7.33400 | 124.12176 | 8190 ft | 318 kts | 335° |
| 2026-04-20 09:33 | 7.35474 | 124.11226 | 9171 ft | 324 kts | 335° |
| 2026-04-20 09:33 | 7.36872 | 124.10585 | 9845 ft | 326 kts | 334° |
| 2026-04-20 09:33 | 7.39689 | 124.09293 | 11004 ft | 336 kts | 334° |
| 2026-04-20 09:33 | 7.41864 | 124.08295 | 11899 ft | 341 kts | 334° |
| 2026-04-20 09:34 | 7.43846 | 124.07388 | 12656 ft | 347 kts | 334° |
| 2026-04-20 09:34 | 7.45867 | 124.06461 | 13378 ft | 352 kts | 334° |
| 2026-04-20 09:34 | 7.50567 | 124.04308 | 15011 ft | 364 kts | 334° |
| 2026-04-20 09:35 | 7.52806 | 124.03282 | 15771 ft | 368 kts | 334° |
| 2026-04-20 09:35 | 7.55174 | 124.02196 | 16494 ft | 373 kts | 334° |
| 2026-04-20 09:35 | 7.56791 | 124.01457 | 16995 ft | 376 kts | 334° |
| 2026-04-20 09:35 | 7.60038 | 123.99968 | 17934 ft | 383 kts | 334° |
| 2026-04-20 09:36 | 7.62525 | 123.98828 | 18629 ft | 387 kts | 334° |
| 2026-04-20 09:36 | 7.65044 | 123.97674 | 19302 ft | 392 kts | 334° |
| 2026-04-20 09:36 | 7.67553 | 123.96524 | 19895 ft | 397 kts | 334° |
| 2026-04-20 09:36 | 7.70143 | 123.95338 | 20076 ft | 402 kts | 334° |
| 2026-04-20 09:37 | 7.72699 | 123.94168 | 20082 ft | 399 kts | 334° |
| 2026-04-20 09:37 | 7.74440 | 123.93372 | 20086 ft | 398 kts | 334° |
| 2026-04-20 09:37 | 7.77844 | 123.91812 | 20085 ft | 396 kts | 334° |
| 2026-04-20 09:37 | 7.80408 | 123.90636 | 20079 ft | 397 kts | 334° |
| 2026-04-20 09:38 | 7.82977 | 123.89457 | 20074 ft | 396 kts | 334° |
| 2026-04-20 09:38 | 7.85545 | 123.88279 | 20071 ft | 397 kts | 334° |
| 2026-04-20 09:38 | 7.88120 | 123.87097 | 20065 ft | 397 kts | 334° |
| 2026-04-20 09:38 | 7.90703 | 123.85911 | 20060 ft | 398 kts | 334° |
| 2026-04-20 09:39 | 7.92436 | 123.85114 | 20191 ft | 406 kts | 335° |
| 2026-04-20 09:39 | 7.95108 | 123.83888 | 20664 ft | 414 kts | 335° |
| 2026-04-20 09:39 | 7.98726 | 123.82225 | 21455 ft | 420 kts | 335° |
| 2026-04-20 09:39 | 8.01433 | 123.80982 | 22024 ft | 424 kts | 335° |
| 2026-04-20 09:40 | 8.03273 | 123.80137 | 22445 ft | 426 kts | 335° |
| 2026-04-20 09:40 | 8.06996 | 123.78426 | 23259 ft | 431 kts | 335° |
| 2026-04-20 09:40 | 8.09761 | 123.77156 | 24194 ft | 425 kts | 335° |
| 2026-04-20 09:40 | 8.12523 | 123.75887 | 24816 ft | 428 kts | 335° |
| 2026-04-20 09:41 | 8.15265 | 123.74626 | 25469 ft | 428 kts | 335° |
| 2026-04-20 09:41 | 8.17994 | 123.73372 | 26265 ft | 425 kts | 335° |
| 2026-04-20 09:41 | 8.19808 | 123.72537 | 26771 ft | 423 kts | 335° |
| 2026-04-20 09:41 | 8.23317 | 123.70924 | 27679 ft | 420 kts | 336° |
| 2026-04-20 09:42 | 8.25819 | 123.69772 | 28291 ft | 419 kts | 336° |
| 2026-04-20 09:42 | 8.28550 | 123.68516 | 28937 ft | 418 kts | 336° |
| 2026-04-20 09:42 | 8.30909 | 123.67430 | 29458 ft | 418 kts | 336° |
| 2026-04-20 09:42 | 8.33586 | 123.66198 | 30044 ft | 417 kts | 336° |